createdAt,value
2019-02-25T00:02:16.606Z,70.40
2019-02-25T00:04:45.059Z,70.30
2019-02-25T00:07:13.538Z,70.30
2019-02-25T00:09:42.004Z,70.40
2019-02-25T00:12:10.498Z,70.40
2019-02-25T00:14:39.029Z,70.50
2019-02-25T00:17:07.527Z,70.50
2019-02-25T00:19:35.989Z,70.40
2019-02-25T00:22:04.810Z,70.40
2019-02-25T00:24:33.274Z,70.50
2019-02-25T00:27:01.766Z,70.50
2019-02-25T00:29:30.226Z,70.40
2019-02-25T00:31:58.775Z,71.10
2019-02-25T00:34:27.245Z,70.30
2019-02-25T00:36:55.733Z,70.20
2019-02-25T00:39:24.194Z,70.20
2019-02-25T00:41:52.744Z,70.10
2019-02-25T00:44:21.222Z,70.10
2019-02-25T00:46:49.705Z,70.90
2019-02-25T00:49:18.164Z,70.10
2019-02-25T00:51:46.701Z,70.10
2019-02-25T00:54:15.176Z,70.10
2019-02-25T00:56:43.637Z,70.10
2019-02-25T00:59:12.179Z,70.10
2019-02-25T01:01:40.658Z,70.20
2019-02-25T01:04:09.218Z,70.10
2019-02-25T01:06:37.686Z,70.00
2019-02-25T01:09:07.004Z,70.00
2019-02-25T01:11:35.481Z,69.90
2019-02-25T01:14:04.797Z,70.00
2019-02-25T01:16:33.257Z,70.00
2019-02-25T01:19:01.737Z,70.00
2019-02-25T01:21:30.216Z,70.00
2019-02-25T01:23:58.711Z,70.00
2019-02-25T01:26:27.163Z,70.00
2019-02-25T01:28:55.659Z,70.00
2019-02-25T01:31:24.127Z,70.10
2019-02-25T01:33:52.642Z,70.00
2019-02-25T01:36:21.129Z,70.10
2019-02-25T01:38:49.606Z,70.10
2019-02-25T01:41:18.071Z,70.20
2019-02-25T01:43:46.550Z,70.30
2019-02-25T01:46:15.015Z,70.30
2019-02-25T01:48:43.508Z,70.30
2019-02-25T01:51:11.968Z,70.30
2019-02-25T01:53:40.446Z,70.30
2019-02-25T01:56:09.086Z,70.30
2019-02-25T01:58:37.564Z,70.30
2019-02-25T02:01:06.035Z,70.30
2019-02-25T02:03:34.510Z,70.30
2019-02-25T02:06:02.980Z,70.40
2019-02-25T02:08:31.449Z,70.30
2019-02-25T02:10:59.911Z,70.30
2019-02-25T02:13:28.402Z,70.50
2019-02-25T02:15:56.853Z,70.60
2019-02-25T02:18:25.338Z,70.60
2019-02-25T02:20:53.874Z,70.50
2019-02-25T02:23:22.356Z,70.50
2019-02-25T02:25:50.815Z,70.60
2019-02-25T02:28:19.289Z,70.60
2019-02-25T02:30:47.769Z,70.60
2019-02-25T02:33:16.256Z,70.80
2019-02-25T02:35:44.728Z,70.80
2019-02-25T02:38:13.265Z,70.80
2019-02-25T02:40:41.754Z,70.90
2019-02-25T02:43:10.235Z,70.80
2019-02-25T02:45:56.866Z,70.90
2019-02-25T02:48:31.048Z,71.00
2019-02-25T02:50:59.544Z,71.00
2019-02-25T02:53:28.067Z,71.10
2019-02-25T02:55:56.540Z,71.10
2019-02-25T02:58:25.009Z,71.10
2019-02-25T03:00:53.477Z,71.30
2019-02-25T03:03:21.966Z,71.30
2019-02-25T03:05:50.435Z,71.30
2019-02-25T03:08:18.913Z,71.30
2019-02-25T03:10:47.378Z,71.40
2019-02-25T03:13:15.855Z,71.30
2019-02-25T03:15:44.396Z,71.40
2019-02-25T03:18:12.865Z,71.60
2019-02-25T03:20:41.398Z,71.70
2019-02-25T03:23:09.883Z,71.70
2019-02-25T03:25:38.350Z,71.70
2019-02-25T03:28:06.841Z,71.70
2019-02-25T03:30:35.313Z,71.80
2019-02-25T03:33:03.794Z,71.80
2019-02-25T03:35:32.327Z,71.80
2019-02-25T03:38:00.822Z,72.00
2019-02-25T03:40:29.290Z,72.60
2019-02-25T03:42:57.747Z,72.10
2019-02-25T03:45:26.223Z,72.10
2019-02-25T03:47:54.697Z,72.10
2019-02-25T03:50:23.178Z,72.10
2019-02-25T03:52:51.635Z,72.10
2019-02-25T03:55:21.362Z,72.30
2019-02-25T03:57:50.010Z,72.30
2019-02-25T04:00:23.335Z,72.30
2019-02-25T04:02:51.970Z,72.30
2019-02-25T04:05:20.527Z,72.30
2019-02-25T04:07:48.982Z,72.30
2019-02-25T04:10:17.543Z,72.30
2019-02-25T04:12:46.067Z,72.30
2019-02-25T04:15:23.475Z,72.20
2019-02-25T04:17:52.021Z,72.30
2019-02-25T04:20:20.516Z,72.30
2019-02-25T04:22:48.984Z,72.30
2019-02-25T04:25:17.554Z,72.20
2019-02-25T04:27:46.084Z,72.20
2019-02-25T04:30:15.994Z,72.30
2019-02-25T04:32:44.474Z,72.30
2019-02-25T04:35:14.065Z,72.30
2019-02-25T04:37:42.690Z,72.20
2019-02-25T04:40:14.979Z,72.20
2019-02-25T04:42:43.512Z,72.30
2019-02-25T04:45:17.029Z,72.30
2019-02-25T04:47:45.495Z,72.30
2019-02-25T04:50:15.514Z,72.30
2019-02-25T04:52:43.972Z,72.20
2019-02-25T04:55:13.607Z,72.20
2019-02-25T04:57:42.073Z,72.20
2019-02-25T05:00:16.525Z,72.30
2019-02-25T05:02:45.066Z,72.30
2019-02-25T05:05:13.793Z,72.30
2019-02-25T05:07:42.261Z,72.30
2019-02-25T05:10:12.783Z,71.60
2019-02-25T05:12:42.893Z,72.30
2019-02-25T05:15:13.255Z,72.30
2019-02-25T05:17:41.727Z,72.40
2019-02-25T05:20:10.359Z,72.50
2019-02-25T05:22:38.866Z,73.10
2019-02-25T05:25:12.103Z,72.40
2019-02-25T05:27:40.561Z,72.40
2019-02-25T05:30:11.873Z,72.50
2019-02-25T05:32:40.339Z,72.40
2019-02-25T05:35:10.660Z,72.40
2019-02-25T05:37:39.130Z,72.40
2019-02-25T05:40:13.623Z,72.50
2019-02-25T05:42:42.338Z,72.40
2019-02-25T05:45:11.851Z,72.50
2019-02-25T05:47:40.314Z,72.50
2019-02-25T05:50:16.429Z,72.50
2019-02-25T05:52:44.902Z,72.60
2019-02-25T05:55:17.066Z,72.50
2019-02-25T05:57:45.784Z,72.50
2019-02-25T06:00:17.682Z,72.60
2019-02-25T06:02:46.213Z,73.10
2019-02-25T06:05:14.780Z,72.50
2019-02-25T06:07:43.304Z,72.70
2019-02-25T06:10:13.208Z,72.70
2019-02-25T06:12:41.751Z,72.70
2019-02-25T06:15:15.158Z,72.60
2019-02-25T06:17:43.654Z,72.60
2019-02-25T06:20:16.068Z,72.60
2019-02-25T06:22:44.980Z,72.50
2019-02-25T06:25:14.705Z,72.50
2019-02-25T06:27:43.176Z,72.50
2019-02-25T06:30:22.594Z,72.50
2019-02-25T06:32:51.402Z,72.40
2019-02-25T06:35:20.207Z,72.30
2019-02-25T06:37:48.671Z,72.30
2019-02-25T06:40:20.917Z,72.20
2019-02-25T06:42:49.452Z,72.10
2019-02-25T06:45:31.185Z,72.00
2019-02-25T06:47:59.910Z,72.00
2019-02-25T06:50:28.407Z,71.80
2019-02-25T06:52:56.941Z,71.60
2019-02-25T06:55:25.425Z,71.50
2019-02-25T06:57:53.891Z,71.40
2019-02-25T07:00:23.403Z,71.30
2019-02-25T07:02:52.047Z,71.20
2019-02-25T07:05:24.937Z,71.10
2019-02-25T07:07:55.047Z,70.80
2019-02-25T07:10:37.075Z,70.70
2019-02-25T07:13:12.900Z,70.60
2019-02-25T07:15:59.487Z,70.30
2019-02-25T07:18:41.725Z,70.20
2019-02-25T07:21:14.565Z,70.00
2019-02-25T07:23:50.661Z,69.80
2019-02-25T07:26:23.747Z,69.60
2019-02-25T07:28:53.915Z,69.50
2019-02-25T07:31:26.549Z,69.20
2019-02-25T07:33:56.661Z,69.10
2019-02-25T07:36:44.723Z,68.80
2019-02-25T07:39:14.818Z,68.60
2019-02-25T07:41:47.425Z,68.40
2019-02-25T07:44:17.591Z,68.20
2019-02-25T07:46:47.704Z,68.00
2019-02-25T07:49:29.830Z,67.70
2019-02-25T07:52:02.691Z,67.50
2019-02-25T07:54:50.902Z,67.30
2019-02-25T07:57:37.050Z,67.10
2019-02-25T08:00:15.986Z,66.90
2019-02-25T08:03:01.214Z,66.60
2019-02-25T08:05:43.080Z,66.40
2019-02-25T08:08:28.508Z,65.90
2019-02-25T08:10:58.610Z,65.80
2019-02-25T08:13:31.466Z,65.60
2019-02-25T08:16:04.039Z,65.50
2019-02-25T08:18:40.400Z,65.30
2019-02-25T08:21:25.923Z,65.00
2019-02-25T08:23:58.468Z,65.00
2019-02-25T08:26:31.600Z,64.90
2019-02-25T08:29:04.500Z,64.70
2019-02-25T08:31:37.660Z,64.40
2019-02-25T08:34:07.764Z,63.90
2019-02-25T08:37:14.224Z,63.90
2019-02-25T08:39:58.819Z,63.70
2019-02-25T08:42:31.087Z,63.40
2019-02-25T08:45:01.347Z,63.20
2019-02-25T08:47:31.462Z,63.00
2019-02-25T08:49:59.939Z,62.70
2019-02-25T08:52:28.491Z,62.50
2019-02-25T08:54:57.022Z,62.20
2019-02-25T08:57:25.559Z,62.20
2019-02-25T08:59:54.101Z,62.00
2019-02-25T09:02:22.655Z,61.80
2019-02-25T09:04:51.298Z,62.30
2019-02-25T09:07:19.859Z,61.20
2019-02-25T09:09:48.339Z,60.80
2019-02-25T09:12:16.887Z,60.60
2019-02-25T09:14:45.342Z,60.40
2019-02-25T09:17:15.980Z,59.90
2019-02-25T09:19:44.001Z,59.60
2019-02-25T09:22:12.489Z,59.40
2019-02-25T09:24:40.997Z,59.30
2019-02-25T09:27:09.528Z,59.20
2019-02-25T09:29:37.993Z,58.90
2019-02-25T09:32:06.473Z,58.70
2019-02-25T09:34:34.949Z,58.50
2019-02-25T09:37:03.447Z,58.40
2019-02-25T09:39:31.916Z,58.20
2019-02-25T09:42:02.126Z,58.10
2019-02-25T09:44:31.323Z,57.70
2019-02-25T09:46:59.775Z,57.50
2019-02-25T09:49:28.277Z,57.60
2019-02-25T09:51:56.804Z,57.50
2019-02-25T09:54:25.272Z,57.10
2019-02-25T09:56:54.360Z,56.70
2019-02-25T09:59:23.491Z,56.50
2019-02-25T10:01:52.538Z,56.40
2019-02-25T10:04:21.620Z,56.00
2019-02-25T10:06:50.661Z,55.50
2019-02-25T10:09:19.709Z,55.90
2019-02-25T10:11:48.826Z,55.20
2019-02-25T10:14:17.902Z,55.00
2019-02-25T10:16:46.938Z,54.50
2019-02-25T10:19:16.000Z,54.60
2019-02-25T10:21:45.033Z,53.50
2019-02-25T10:24:14.100Z,53.60
2019-02-25T10:26:43.142Z,53.40
2019-02-25T10:29:12.302Z,53.50
2019-02-25T10:31:42.185Z,53.40
2019-02-25T10:34:12.180Z,53.00
2019-02-25T10:36:41.236Z,53.00
2019-02-25T10:39:15.407Z,53.20
2019-02-25T10:41:44.110Z,52.90
2019-02-25T10:44:13.195Z,52.90
2019-02-25T10:46:42.813Z,52.30
2019-02-25T10:49:12.567Z,52.20
2019-02-25T10:51:43.348Z,52.40
2019-02-25T10:54:12.557Z,52.00
2019-02-25T10:56:44.723Z,52.30
2019-02-25T10:59:13.780Z,52.20
2019-02-25T11:01:43.363Z,52.10
2019-02-25T11:04:15.283Z,52.10
2019-02-25T11:06:44.475Z,52.10
2019-02-25T11:09:15.858Z,52.00
2019-02-25T11:11:46.367Z,51.70
2019-02-25T11:14:15.425Z,51.80
2019-02-25T11:16:46.001Z,51.60
2019-02-25T11:19:15.273Z,51.60
2019-02-25T11:21:44.375Z,51.60
2019-02-25T11:24:14.469Z,51.80
2019-02-25T11:26:44.237Z,51.60
2019-02-25T11:29:13.868Z,50.80
2019-02-25T11:31:45.227Z,50.70
2019-02-25T11:34:14.964Z,50.60
2019-02-25T11:36:44.014Z,50.60
2019-02-25T11:39:14.918Z,50.70
2019-02-25T11:41:43.986Z,50.30
2019-02-25T11:44:13.047Z,50.40
2019-02-25T11:46:42.100Z,49.60
2019-02-25T11:49:11.170Z,49.00
2019-02-25T11:51:40.254Z,48.90
2019-02-25T11:54:09.380Z,48.70
2019-02-25T11:56:38.455Z,47.60
2019-02-25T11:59:07.528Z,48.30
2019-02-25T12:01:36.681Z,48.50
2019-02-25T12:04:05.804Z,47.70
2019-02-25T12:06:34.866Z,48.60
2019-02-25T12:09:04.791Z,48.70
2019-02-25T12:11:33.966Z,48.70
2019-02-25T12:14:03.058Z,48.60
2019-02-25T12:16:32.113Z,48.60
2019-02-25T12:19:01.184Z,48.60
2019-02-25T12:21:30.257Z,48.70
2019-02-25T12:23:59.328Z,48.70
2019-02-25T12:26:28.389Z,48.50
2019-02-25T12:28:57.460Z,48.20
2019-02-25T12:31:26.515Z,48.60
2019-02-25T12:33:55.611Z,48.70
2019-02-25T12:36:24.689Z,48.80
2019-02-25T12:38:53.800Z,48.50
2019-02-25T12:41:22.855Z,48.60
2019-02-25T12:43:51.937Z,48.70
2019-02-25T12:46:21.005Z,48.70
2019-02-25T12:48:50.092Z,48.70
2019-02-25T12:51:19.155Z,48.60
2019-02-25T12:53:48.209Z,48.60
2019-02-25T12:56:17.292Z,48.30
2019-02-25T12:58:46.359Z,48.40
2019-02-25T13:01:15.441Z,48.00
2019-02-25T13:03:44.511Z,48.00
2019-02-25T13:06:13.573Z,47.90
2019-02-25T13:08:42.639Z,47.60
2019-02-25T13:11:11.696Z,47.70
2019-02-25T13:13:40.757Z,48.00
2019-02-25T13:16:09.827Z,47.80
2019-02-25T13:18:38.899Z,47.50
2019-02-25T13:21:07.966Z,47.40
2019-02-25T13:23:37.041Z,47.60
2019-02-25T13:26:07.634Z,47.10
2019-02-25T13:28:36.953Z,47.10
2019-02-25T13:31:07.645Z,46.90
2019-02-25T13:33:36.989Z,46.90
2019-02-25T13:36:09.220Z,46.70
2019-02-25T13:38:38.351Z,46.70
2019-02-25T13:41:07.480Z,44.00
2019-02-25T13:43:36.631Z,44.30
2019-02-25T13:46:05.768Z,44.70
2019-02-25T13:48:34.898Z,43.00
2019-02-25T13:51:04.141Z,42.50
2019-02-25T13:53:33.268Z,42.40
2019-02-25T13:56:02.572Z,41.10
2019-02-25T13:58:31.706Z,37.90
2019-02-25T14:01:00.952Z,40.30
2019-02-25T14:03:30.072Z,40.90
2019-02-25T14:05:59.287Z,39.70
2019-02-25T14:08:28.615Z,39.30
2019-02-25T14:10:57.846Z,38.90
2019-02-25T14:13:26.966Z,39.00
2019-02-25T14:15:56.130Z,39.10
2019-02-25T14:18:25.360Z,38.10
2019-02-25T14:20:54.561Z,36.40
2019-02-25T14:23:23.920Z,37.80
2019-02-25T14:25:53.180Z,37.90
2019-02-25T14:28:22.379Z,38.20
2019-02-25T14:30:51.704Z,37.00
2019-02-25T14:33:23.434Z,36.80
2019-02-25T14:35:53.148Z,36.10
2019-02-25T14:38:23.399Z,36.90
2019-02-25T14:40:54.020Z,35.70
2019-02-25T14:43:25.471Z,34.90
2019-02-25T14:45:56.829Z,34.50
2019-02-25T14:48:27.754Z,33.40
2019-02-25T14:50:56.789Z,34.80
2019-02-25T14:53:25.925Z,32.70
2019-02-25T14:55:57.779Z,34.10
2019-02-25T14:58:26.100Z,33.80
2019-02-25T15:00:55.317Z,33.70
2019-02-25T15:03:25.281Z,33.20
2019-02-25T15:05:57.089Z,34.30
2019-02-25T15:08:28.338Z,35.10
2019-02-25T15:11:00.012Z,34.20
2019-02-25T15:13:28.638Z,34.80
2019-02-25T15:15:59.160Z,35.30
2019-02-25T15:18:31.454Z,34.90
2019-02-25T15:21:02.537Z,35.00
2019-02-25T15:23:31.388Z,35.00
2019-02-25T15:26:05.252Z,34.00
2019-02-25T15:28:31.304Z,35.00
2019-02-25T15:31:04.135Z,34.20
2019-02-25T15:33:31.553Z,34.40
2019-02-25T15:36:01.974Z,34.90
2019-02-25T15:38:32.719Z,35.50
2019-02-25T15:41:02.694Z,35.90
2019-02-25T15:43:32.830Z,35.30
2019-02-25T15:46:02.424Z,36.10
2019-02-25T15:48:32.855Z,36.70
2019-02-25T15:51:02.408Z,37.80
2019-02-25T15:53:32.580Z,38.40
2019-02-25T15:56:03.588Z,38.30
2019-02-25T15:58:32.646Z,38.70
2019-02-25T16:01:01.791Z,39.10
2019-02-25T16:03:32.228Z,39.50
2019-02-25T16:06:03.958Z,39.90
2019-02-25T16:08:33.429Z,40.10
2019-02-25T16:11:03.061Z,41.10
2019-02-25T16:13:33.444Z,40.80
2019-02-25T16:16:02.761Z,41.40
2019-02-25T16:18:31.921Z,41.60
2019-02-25T16:21:01.052Z,41.40
2019-02-25T16:23:32.114Z,40.90
2019-02-25T16:26:01.151Z,40.70
2019-02-25T16:28:31.214Z,41.10
2019-02-25T16:31:01.081Z,41.40
2019-02-25T16:33:31.439Z,42.00
2019-02-25T16:36:02.984Z,42.60
2019-02-25T16:38:34.141Z,43.10
2019-02-25T16:41:03.773Z,43.70
2019-02-25T16:43:33.688Z,44.10
2019-02-25T16:46:06.187Z,44.60
2019-02-25T16:48:33.572Z,45.00
2019-02-25T16:51:03.372Z,45.50
2019-02-25T16:53:36.929Z,45.80
2019-02-25T16:56:05.666Z,46.90
2019-02-25T16:58:36.445Z,46.40
2019-02-25T17:01:07.980Z,46.60
2019-02-25T17:03:39.117Z,46.70
2019-02-25T17:06:09.220Z,46.90
2019-02-25T17:08:38.742Z,47.20
2019-02-25T17:11:07.881Z,47.60
2019-02-25T17:13:39.296Z,47.80
2019-02-25T17:16:17.868Z,48.00
2019-02-25T17:18:39.245Z,48.30
2019-02-25T17:21:08.624Z,48.70
2019-02-25T17:23:38.778Z,49.00
2019-02-25T17:26:09.968Z,49.20
2019-02-25T17:28:38.912Z,49.60
2019-02-25T17:31:09.025Z,49.80
2019-02-25T17:33:38.931Z,50.20
2019-02-25T17:36:09.783Z,50.40
2019-02-25T17:38:39.034Z,50.50
2019-02-25T17:41:10.780Z,50.80
2019-02-25T17:43:42.551Z,51.00
2019-02-25T17:46:11.657Z,51.10
2019-02-25T17:48:41.861Z,51.40
2019-02-25T17:51:11.136Z,51.40
2019-02-25T17:53:40.187Z,51.40
2019-02-25T17:56:09.303Z,51.50
2019-02-25T17:58:40.717Z,51.70
2019-02-25T18:01:11.092Z,52.00
2019-02-25T18:03:42.203Z,52.40
2019-02-25T18:06:11.100Z,52.70
2019-02-25T18:08:40.226Z,52.90
2019-02-25T18:11:09.382Z,53.10
2019-02-25T18:13:38.534Z,53.40
2019-02-25T18:16:08.545Z,53.60
2019-02-25T18:18:39.078Z,54.00
2019-02-25T18:21:09.358Z,54.20
2019-02-25T18:23:38.492Z,54.40
2019-02-25T18:26:07.719Z,54.50
2019-02-25T18:28:37.377Z,54.70
2019-02-25T18:31:20.821Z,54.70
2019-02-25T18:33:51.131Z,54.90
2019-02-25T18:36:21.855Z,55.00
2019-02-25T18:38:52.713Z,55.10
2019-02-25T18:41:23.229Z,55.20
2019-02-25T18:43:53.596Z,55.30
2019-02-25T18:46:23.364Z,55.40
2019-02-25T18:48:53.264Z,55.80
2019-02-25T18:51:24.175Z,56.00
2019-02-25T18:53:54.694Z,56.20
2019-02-25T18:56:23.989Z,56.40
2019-02-25T18:58:53.778Z,56.60
2019-02-25T19:01:24.117Z,56.60
2019-02-25T19:03:54.771Z,56.80
2019-02-25T19:06:25.606Z,56.90
2019-02-25T19:08:56.149Z,56.90
2019-02-25T19:11:27.751Z,56.90
2019-02-25T19:13:59.456Z,56.90
2019-02-25T19:16:26.864Z,56.70
2019-02-25T19:18:56.009Z,56.60
2019-02-25T19:21:26.030Z,56.60
2019-02-25T19:23:56.149Z,56.50
2019-02-25T19:26:24.875Z,56.50
2019-02-25T19:28:54.723Z,56.80
2019-02-25T19:31:26.130Z,56.00
2019-02-25T19:33:54.416Z,55.80
2019-02-25T19:36:25.623Z,55.70
2019-02-25T19:38:53.855Z,55.80
2019-02-25T19:41:25.870Z,56.00
2019-02-25T19:43:59.205Z,56.20
2019-02-25T19:46:24.015Z,56.50
2019-02-25T19:48:54.253Z,56.50
2019-02-25T19:51:25.261Z,56.50
2019-02-25T19:53:54.335Z,56.40
2019-02-25T19:56:22.940Z,56.40
2019-02-25T19:58:51.434Z,56.30
2019-02-25T20:01:20.484Z,56.20
2019-02-25T20:03:49.545Z,56.20
2019-02-25T20:06:20.920Z,56.20
2019-02-25T20:08:51.032Z,56.10
2019-02-25T20:11:19.700Z,56.20
2019-02-25T20:13:48.256Z,56.20
2019-02-25T20:16:18.720Z,56.30
2019-02-25T20:18:48.392Z,56.20
2019-02-25T20:21:17.525Z,56.30
2019-02-25T20:23:47.946Z,56.30
2019-02-25T20:26:17.742Z,56.40
2019-02-25T20:28:48.766Z,56.40
2019-02-25T20:31:17.640Z,56.50
2019-02-25T20:33:46.771Z,56.50
2019-02-25T20:36:19.246Z,56.60
2019-02-25T20:38:46.046Z,56.60
2019-02-25T20:41:17.974Z,56.60
2019-02-25T20:43:47.221Z,56.70
2019-02-25T20:46:15.560Z,56.80
2019-02-25T20:48:46.512Z,56.90
2019-02-25T20:51:14.246Z,57.00
2019-02-25T20:53:42.716Z,57.10
2019-02-25T20:56:11.191Z,57.30
2019-02-25T20:58:43.069Z,57.50
2019-02-25T21:01:12.078Z,57.70
2019-02-25T21:03:43.866Z,58.00
2019-02-25T21:06:12.659Z,58.20
2019-02-25T21:08:42.349Z,58.40
2019-02-25T21:11:13.381Z,58.70
2019-02-25T21:13:42.384Z,59.10
2019-02-25T21:16:10.851Z,59.30
2019-02-25T21:18:39.333Z,59.50
2019-02-25T21:21:11.253Z,59.60
2019-02-25T21:23:38.172Z,59.70
2019-02-25T21:26:08.819Z,59.90
2019-02-25T21:28:38.138Z,59.90
2019-02-25T21:31:11.603Z,60.00
2019-02-25T21:33:37.331Z,60.40
2019-02-25T21:36:05.793Z,60.50
2019-02-25T21:38:34.277Z,60.90
2019-02-25T21:41:02.765Z,61.10
2019-02-25T21:43:31.249Z,61.30
2019-02-25T21:46:01.558Z,61.50
2019-02-25T21:48:32.424Z,61.80
2019-02-25T21:51:02.334Z,62.00
2019-02-25T21:53:30.403Z,62.10
2019-02-25T21:56:04.228Z,62.30
2019-02-25T21:58:29.078Z,62.50
2019-02-25T22:00:57.542Z,62.60
2019-02-25T22:03:26.353Z,62.40
2019-02-25T22:05:56.225Z,62.10
2019-02-25T22:08:26.732Z,62.00
2019-02-25T22:10:55.498Z,61.80
2019-02-25T22:13:23.976Z,61.60
2019-02-25T22:15:52.443Z,61.40
2019-02-25T22:18:20.930Z,61.30
2019-02-25T22:20:51.381Z,62.00
2019-02-25T22:23:21.982Z,61.10
2019-02-25T22:25:49.862Z,61.00
2019-02-25T22:28:18.351Z,61.00
2019-02-25T22:30:47.484Z,61.00
2019-02-25T22:33:26.761Z,60.90
2019-02-25T22:35:49.400Z,61.00
2019-02-25T22:38:17.985Z,61.10
2019-02-25T22:40:46.632Z,61.30
2019-02-25T22:43:16.405Z,61.50
2019-02-25T22:45:45.315Z,61.60
2019-02-25T22:48:14.542Z,61.80
2019-02-25T22:50:44.000Z,62.00
2019-02-25T22:53:12.482Z,62.00
2019-02-25T22:55:42.672Z,62.20
2019-02-25T22:58:12.755Z,62.30
2019-02-25T23:00:46.040Z,62.50
2019-02-25T23:03:17.333Z,62.60
2019-02-25T23:05:45.981Z,62.80
2019-02-25T23:08:15.480Z,62.90
2019-02-25T23:10:46.870Z,63.10
2019-02-25T23:13:15.590Z,63.20
2019-02-25T23:15:44.769Z,63.50
2019-02-25T23:18:16.645Z,63.60
2019-02-25T23:20:44.536Z,63.70
2019-02-25T23:23:12.990Z,63.90
2019-02-25T23:25:41.482Z,64.10
2019-02-25T23:28:09.947Z,64.20
2019-02-25T23:30:39.647Z,64.30
2019-02-25T23:33:11.803Z,64.50
2019-02-25T23:35:40.813Z,64.70
2019-02-25T23:38:08.777Z,64.90
2019-02-25T23:40:38.224Z,65.00
2019-02-25T23:43:09.559Z,65.20
2019-02-25T23:45:38.320Z,65.50
2019-02-25T23:48:08.891Z,66.30
2019-02-25T23:50:38.136Z,65.70
2019-02-25T23:53:06.636Z,65.90
2019-02-25T23:55:35.159Z,66.00
2019-02-25T23:58:07.871Z,66.20
